createdAt,value
2019-04-06T00:00:25.933Z,0.00
2019-04-06T00:01:25.945Z,0.00
2019-04-06T00:02:26.012Z,0.00
2019-04-06T00:03:25.901Z,0.00
2019-04-06T00:04:25.888Z,0.00
2019-04-06T00:06:25.951Z,0.00
2019-04-06T00:08:25.950Z,0.00
2019-04-06T00:09:25.833Z,0.00
2019-04-06T00:10:25.848Z,0.00
2019-04-06T00:21:25.716Z,0.00
2019-04-06T00:23:25.683Z,0.00
2019-04-06T00:36:25.543Z,0.00
2019-04-06T00:37:25.556Z,0.00
2019-04-06T00:38:25.543Z,0.00
2019-04-06T00:39:25.541Z,0.00
2019-04-06T00:40:25.622Z,0.00
2019-04-06T00:41:25.508Z,0.00
2019-04-06T00:42:25.474Z,0.00
2019-04-06T00:43:25.466Z,0.00
2019-04-06T00:44:25.506Z,0.00
2019-04-06T00:45:25.758Z,0.00
2019-04-06T00:46:25.393Z,0.00
2019-04-06T00:47:25.379Z,0.00
2019-04-06T00:48:25.371Z,0.00
2019-04-06T00:49:25.357Z,0.00
2019-04-06T00:50:25.345Z,0.00
2019-04-06T00:51:25.434Z,0.00
2019-04-06T00:52:25.333Z,0.00
2019-04-06T00:53:25.317Z,0.00
2019-04-06T00:54:25.302Z,0.00
2019-04-06T00:55:25.295Z,0.00
2019-04-06T00:56:25.384Z,5.62
2019-04-06T00:57:25.274Z,5.62
2019-04-06T00:58:25.265Z,5.62
2019-04-06T00:59:25.254Z,5.62
2019-04-06T01:00:25.244Z,5.62
2019-04-06T01:01:25.385Z,11.25
2019-04-06T01:02:25.218Z,11.25
2019-04-06T01:03:25.207Z,11.25
2019-04-06T01:04:25.205Z,11.25
2019-04-06T01:05:25.191Z,16.87
2019-04-06T01:06:25.274Z,16.87
2019-04-06T01:07:25.171Z,22.50
2019-04-06T01:08:25.153Z,22.50
2019-04-06T01:09:25.140Z,28.12
2019-04-06T01:10:25.131Z,28.12
2019-04-06T01:11:25.119Z,33.75
2019-04-06T01:12:25.215Z,39.37
2019-04-06T01:13:25.099Z,39.37
2019-04-06T01:14:25.091Z,45.00
2019-04-06T01:15:25.077Z,50.62
2019-04-06T01:16:25.068Z,56.25
2019-04-06T01:17:25.062Z,61.87
2019-04-06T01:18:25.250Z,73.12
2019-04-06T01:19:25.062Z,84.37
2019-04-06T01:20:25.022Z,90.00
2019-04-06T01:21:25.011Z,95.62
2019-04-06T01:22:25.045Z,101.25
2019-04-06T01:23:24.995Z,112.50
2019-04-06T01:24:25.079Z,118.12
2019-04-06T01:25:24.974Z,123.75
2019-04-06T01:26:24.963Z,129.37
2019-04-06T01:27:24.947Z,140.62
2019-04-06T01:28:24.938Z,151.87
2019-04-06T01:29:25.027Z,163.12
2019-04-06T01:30:24.919Z,168.75
2019-04-06T01:31:24.908Z,185.62
2019-04-06T01:32:24.908Z,196.87
2019-04-06T01:33:24.893Z,213.75
2019-04-06T01:34:24.877Z,230.62
2019-04-06T01:35:25.017Z,247.50
2019-04-06T01:36:24.849Z,264.37
2019-04-06T01:37:24.848Z,281.25
2019-04-06T01:38:24.837Z,292.50
2019-04-06T01:39:24.827Z,326.25
2019-04-06T01:40:24.808Z,438.75
2019-04-06T01:41:24.985Z,596.25
2019-04-06T01:42:24.822Z,736.87
2019-04-06T01:43:24.774Z,826.87
2019-04-06T01:44:24.764Z,815.62
2019-04-06T01:45:24.756Z,742.50
2019-04-06T01:46:24.741Z,703.12
2019-04-06T01:47:24.845Z,708.75
2019-04-06T01:48:24.722Z,714.37
2019-04-06T01:49:24.722Z,753.75
2019-04-06T01:50:24.698Z,804.37
2019-04-06T01:51:24.693Z,849.37
2019-04-06T01:52:24.680Z,888.75
2019-04-06T01:53:24.823Z,900.00
2019-04-06T01:54:24.711Z,888.75
2019-04-06T01:55:24.645Z,877.50
2019-04-06T01:56:24.645Z,883.12
2019-04-06T01:57:24.624Z,883.12
2019-04-06T01:58:24.615Z,888.75
2019-04-06T01:59:24.715Z,928.12
2019-04-06T02:00:24.601Z,990.00
2019-04-06T02:01:24.580Z,1029.37
2019-04-06T02:02:24.574Z,1040.62
2019-04-06T02:03:24.571Z,1051.87
2019-04-06T02:04:24.555Z,1063.12
2019-04-06T02:05:24.639Z,1063.12
2019-04-06T02:06:24.531Z,1085.62
2019-04-06T02:07:24.519Z,1113.75
2019-04-06T02:08:24.510Z,1153.12
2019-04-06T02:09:24.494Z,1237.50
2019-04-06T02:10:24.486Z,1282.50
2019-04-06T02:11:24.574Z,1327.50
2019-04-06T02:12:24.464Z,1411.87
2019-04-06T02:13:24.455Z,1479.37
2019-04-06T02:14:24.446Z,1524.37
2019-04-06T02:15:24.429Z,1524.37
2019-04-06T02:16:24.471Z,1518.75
2019-04-06T02:17:24.512Z,1558.12
2019-04-06T02:18:24.399Z,1625.62
2019-04-06T02:19:24.387Z,1681.87
2019-04-06T02:20:24.382Z,1636.87
2019-04-06T02:21:24.509Z,1546.87
2019-04-06T02:22:24.358Z,1518.75
2019-04-06T02:23:24.447Z,1530.00
2019-04-06T02:24:24.338Z,1659.37
2019-04-06T02:25:24.326Z,1805.62
2019-04-06T02:26:30.205Z,1963.12
2019-04-06T02:27:49.202Z,2058.75
2019-04-06T02:28:49.221Z,1991.25
2019-04-06T02:29:49.107Z,1845.00
2019-04-06T02:30:49.092Z,1608.75
2019-04-06T02:31:49.083Z,1440.00
2019-04-06T02:32:49.071Z,1383.75
2019-04-06T02:33:49.462Z,1406.25
2019-04-06T02:34:49.048Z,1468.12
2019-04-06T02:35:49.041Z,1473.75
2019-04-06T02:36:49.146Z,1496.25
2019-04-06T02:37:49.018Z,1552.50
2019-04-06T02:38:49.016Z,1625.62
2019-04-06T02:39:49.115Z,1648.12
2019-04-06T02:40:48.981Z,1597.50
2019-04-06T02:41:48.978Z,1569.37
2019-04-06T02:42:48.969Z,1552.50
2019-04-06T02:43:48.962Z,1535.62
2019-04-06T02:44:48.947Z,1479.37
2019-04-06T02:45:49.038Z,1434.37
2019-04-06T02:46:48.924Z,1456.87
2019-04-06T02:47:48.922Z,1541.25
2019-04-06T02:48:48.911Z,1558.12
2019-04-06T02:49:48.983Z,1507.50
2019-04-06T02:50:48.884Z,1468.12
2019-04-06T02:51:49.022Z,1440.00
2019-04-06T02:52:48.907Z,1485.00
2019-04-06T02:53:48.852Z,1462.50
2019-04-06T02:54:48.844Z,1400.62
2019-04-06T02:55:48.828Z,1383.75
2019-04-06T02:56:48.874Z,1468.12
2019-04-06T02:57:48.815Z,1524.37
2019-04-06T02:58:48.803Z,1524.37
2019-04-06T02:59:48.808Z,1400.62
2019-04-06T03:00:48.811Z,1113.75
2019-04-06T03:01:48.772Z,922.50
2019-04-06T03:02:48.876Z,888.75
2019-04-06T03:03:48.855Z,911.25
2019-04-06T03:04:48.940Z,1080.00
2019-04-06T03:05:48.742Z,1355.62
2019-04-06T03:06:48.720Z,1456.87
2019-04-06T03:07:48.729Z,1423.12
2019-04-06T03:08:49.095Z,1468.12
2019-04-06T03:09:48.785Z,1485.00
2019-04-06T03:10:48.683Z,1456.87
2019-04-06T03:11:48.675Z,1389.37
2019-04-06T03:12:48.651Z,1271.25
2019-04-06T03:13:48.641Z,1192.50
2019-04-06T03:14:48.687Z,1271.25
2019-04-06T03:15:48.636Z,1395.00
2019-04-06T03:16:48.611Z,1411.87
2019-04-06T03:17:48.600Z,1310.62
2019-04-06T03:18:48.593Z,1170.00
2019-04-06T03:19:48.624Z,1164.37
2019-04-06T03:20:48.571Z,1085.62
2019-04-06T03:21:48.822Z,821.25
2019-04-06T03:22:48.556Z,686.25
2019-04-06T03:23:51.265Z,652.50
2019-04-06T03:24:48.643Z,624.37
2019-04-06T03:25:48.515Z,585.00
2019-04-06T03:26:59.944Z,556.87
2019-04-06T03:27:49.698Z,534.37
2019-04-06T03:28:48.484Z,528.75
2019-04-06T03:29:57.501Z,523.12
2019-04-06T03:30:50.157Z,517.50
2019-04-06T03:31:48.475Z,517.50
2019-04-06T03:32:48.440Z,511.87
2019-04-06T03:33:48.642Z,506.25
2019-04-06T03:34:48.418Z,506.25
2019-04-06T03:35:49.998Z,500.62
2019-04-06T03:36:48.462Z,500.62
2019-04-06T03:37:48.388Z,495.00
2019-04-06T03:38:48.382Z,495.00
2019-04-06T03:39:48.374Z,489.37
2019-04-06T03:40:48.356Z,483.75
2019-04-06T03:41:48.493Z,489.37
2019-04-06T03:42:48.382Z,483.75
2019-04-06T03:43:48.321Z,478.12
2019-04-06T03:44:48.317Z,472.50
2019-04-06T03:45:48.308Z,472.50
2019-04-06T03:46:48.294Z,466.87
2019-04-06T03:47:48.391Z,466.87
2019-04-06T03:48:48.270Z,461.25
2019-04-06T03:49:48.407Z,461.25
2019-04-06T03:50:48.253Z,455.62
2019-04-06T03:51:48.239Z,455.62
2019-04-06T03:52:48.294Z,450.00
2019-04-06T03:53:48.274Z,444.37
2019-04-06T03:54:48.311Z,444.37
2019-04-06T03:55:48.198Z,444.37
2019-04-06T03:56:48.182Z,438.75
2019-04-06T03:57:48.176Z,438.75
2019-04-06T03:58:48.166Z,433.12
2019-04-06T03:59:48.210Z,438.75
2019-04-06T04:00:48.314Z,438.75
2019-04-06T04:01:48.136Z,433.12
2019-04-06T04:02:48.316Z,433.12
2019-04-06T04:03:48.118Z,427.50
2019-04-06T04:04:48.555Z,427.50
2019-04-06T04:05:48.183Z,427.50
2019-04-06T04:06:48.083Z,427.50
2019-04-06T04:07:48.074Z,427.50
2019-04-06T04:08:48.059Z,421.87
2019-04-06T04:09:48.050Z,421.87
2019-04-06T04:10:48.206Z,421.87
2019-04-06T04:11:48.026Z,421.87
2019-04-06T04:12:48.023Z,421.87
2019-04-06T04:13:48.008Z,416.25
2019-04-06T04:14:48.000Z,416.25
2019-04-06T04:15:47.987Z,416.25
2019-04-06T04:16:48.031Z,416.25
2019-04-06T04:17:48.094Z,410.62
2019-04-06T04:18:47.959Z,410.62
2019-04-06T04:19:47.942Z,410.62
2019-04-06T04:20:47.929Z,410.62
2019-04-06T04:21:47.924Z,405.00
2019-04-06T04:22:48.063Z,405.00
2019-04-06T04:23:47.907Z,405.00
2019-04-06T04:24:47.895Z,405.00
2019-04-06T04:25:47.880Z,405.00
2019-04-06T04:26:47.874Z,399.37
2019-04-06T04:27:47.862Z,399.37
2019-04-06T04:28:47.953Z,399.37
2019-04-06T04:29:47.877Z,393.75
2019-04-06T04:30:47.831Z,393.75
2019-04-06T04:31:47.912Z,388.12
2019-04-06T04:32:47.812Z,388.12
2019-04-06T04:33:47.940Z,388.12
2019-04-06T04:34:47.840Z,382.50
2019-04-06T04:35:47.796Z,382.50
2019-04-06T04:36:47.774Z,382.50
2019-04-06T04:37:47.751Z,376.87
2019-04-06T04:38:47.743Z,376.87
2019-04-06T04:39:48.025Z,376.87
2019-04-06T04:40:47.876Z,371.25
2019-04-06T04:41:47.714Z,371.25
2019-04-06T04:42:47.860Z,371.25
2019-04-06T04:43:47.693Z,371.25
2019-04-06T04:44:47.684Z,371.25
2019-04-06T04:45:47.667Z,365.62
2019-04-06T04:46:47.757Z,365.62
2019-04-06T04:47:49.995Z,365.62
2019-04-06T04:48:47.640Z,360.00
2019-04-06T04:49:47.628Z,360.00
2019-04-06T04:50:47.856Z,360.00
2019-04-06T04:51:47.711Z,354.37
2019-04-06T04:52:47.698Z,354.37
2019-04-06T04:53:47.587Z,354.37
2019-04-06T04:54:47.582Z,348.75
2019-04-06T04:55:47.775Z,348.75
2019-04-06T04:56:47.564Z,348.75
2019-04-06T04:57:47.547Z,343.12
2019-04-06T04:58:47.780Z,343.12
2019-04-06T04:59:47.527Z,343.12
2019-04-06T05:00:47.524Z,343.12
2019-04-06T05:01:47.514Z,337.50
2019-04-06T05:02:47.496Z,337.50
2019-04-06T05:03:47.671Z,331.87
2019-04-06T05:04:47.577Z,331.87
2019-04-06T05:05:47.462Z,331.87
2019-04-06T05:06:47.523Z,326.25
2019-04-06T05:07:47.444Z,326.25
2019-04-06T05:08:47.436Z,326.25
2019-04-06T05:09:47.424Z,326.25
2019-04-06T05:10:47.541Z,320.62
2019-04-06T05:11:49.017Z,320.62
2019-04-06T05:12:47.398Z,320.62
2019-04-06T05:13:47.387Z,315.00
2019-04-06T05:14:47.373Z,315.00
2019-04-06T05:15:47.360Z,309.37
2019-04-06T05:16:47.517Z,309.37
2019-04-06T05:17:47.343Z,309.37
2019-04-06T05:18:47.335Z,303.75
2019-04-06T05:19:47.328Z,303.75
2019-04-06T05:20:47.317Z,303.75
2019-04-06T05:21:47.326Z,298.12
2019-04-06T05:22:47.346Z,298.12
2019-04-06T05:23:47.286Z,298.12
2019-04-06T05:24:47.271Z,292.50
2019-04-06T05:25:47.430Z,292.50
2019-04-06T05:26:47.255Z,292.50
2019-04-06T05:27:52.398Z,286.87
2019-04-06T05:28:47.277Z,286.87
2019-04-06T05:29:47.223Z,281.25
2019-04-06T05:30:47.211Z,275.62
2019-04-06T05:31:47.202Z,275.62
2019-04-06T05:32:47.217Z,275.62
2019-04-06T05:33:47.179Z,270.00
2019-04-06T05:34:47.317Z,270.00
2019-04-06T05:35:47.194Z,270.00
2019-04-06T05:36:47.146Z,264.37
2019-04-06T05:37:47.138Z,264.37
2019-04-06T05:38:47.123Z,264.37
2019-04-06T05:39:47.113Z,258.75
2019-04-06T05:40:47.206Z,258.75
2019-04-06T05:41:47.096Z,258.75
2019-04-06T05:42:47.084Z,258.75
2019-04-06T05:43:47.073Z,258.75
2019-04-06T05:44:47.063Z,258.75
2019-04-06T05:45:47.076Z,258.75
2019-04-06T05:46:47.093Z,253.12
2019-04-06T05:47:47.034Z,253.12
2019-04-06T05:48:47.019Z,253.12
2019-04-06T05:49:47.009Z,253.12
2019-04-06T05:50:47.005Z,253.12
2019-04-06T05:51:46.988Z,253.12
2019-04-06T05:52:47.226Z,253.12
2019-04-06T05:53:46.966Z,253.12
2019-04-06T05:54:46.964Z,253.12
2019-04-06T05:55:46.939Z,253.12
2019-04-06T05:56:46.936Z,247.50
2019-04-06T05:57:46.924Z,247.50
2019-04-06T05:58:47.014Z,247.50
2019-04-06T05:59:46.978Z,247.50
2019-04-06T06:00:46.896Z,247.50
2019-04-06T06:01:48.452Z,247.50
2019-04-06T06:02:46.871Z,247.50
2019-04-06T06:03:46.970Z,247.50
2019-04-06T06:04:46.856Z,247.50
2019-04-06T06:05:46.840Z,247.50
2019-04-06T06:06:47.027Z,247.50
2019-04-06T06:07:46.909Z,247.50
2019-04-06T06:08:46.808Z,247.50
2019-04-06T06:09:46.855Z,247.50
2019-04-06T06:10:46.787Z,247.50
2019-04-06T06:11:46.779Z,247.50
2019-04-06T06:12:46.765Z,247.50
2019-04-06T06:13:46.765Z,247.50
2019-04-06T06:14:46.739Z,247.50
2019-04-06T06:15:46.831Z,241.87
2019-04-06T06:16:46.794Z,241.87
2019-04-06T06:17:46.729Z,241.87
2019-04-06T06:18:46.702Z,241.87
2019-04-06T06:19:46.693Z,241.87
2019-04-06T06:20:48.369Z,241.87
2019-04-06T06:21:46.671Z,241.87
2019-04-06T06:22:46.792Z,241.87
2019-04-06T06:23:46.645Z,241.87
2019-04-06T06:24:46.641Z,241.87
2019-04-06T06:25:46.628Z,241.87
2019-04-06T06:26:46.669Z,241.87
2019-04-06T06:27:46.610Z,241.87
2019-04-06T06:28:46.595Z,241.87
2019-04-06T06:29:46.612Z,241.87
2019-04-06T06:30:46.578Z,241.87
2019-04-06T06:31:46.566Z,236.25
2019-04-06T06:32:46.664Z,236.25
2019-04-06T06:33:46.547Z,236.25
2019-04-06T06:34:46.538Z,236.25
2019-04-06T06:35:46.523Z,236.25
2019-04-06T06:36:46.515Z,236.25
2019-04-06T06:37:46.507Z,236.25
2019-04-06T06:38:46.641Z,236.25
2019-04-06T06:39:46.498Z,236.25
2019-04-06T06:40:46.630Z,236.25
2019-04-06T06:41:46.460Z,236.25
2019-04-06T06:42:46.453Z,236.25
2019-04-06T06:43:46.446Z,236.25
2019-04-06T06:44:46.756Z,236.25
2019-04-06T06:45:46.429Z,236.25
2019-04-06T06:46:46.408Z,236.25
2019-04-06T06:47:46.524Z,236.25
2019-04-06T06:48:46.391Z,236.25
2019-04-06T06:49:46.498Z,236.25
2019-04-06T06:50:46.469Z,236.25
2019-04-06T06:51:46.355Z,236.25
2019-04-06T06:52:46.343Z,236.25
2019-04-06T06:53:46.333Z,241.87
2019-04-06T06:54:46.385Z,241.87
2019-04-06T06:55:46.314Z,241.87
2019-04-06T06:56:46.687Z,247.50
2019-04-06T06:57:46.297Z,247.50
2019-04-06T06:58:46.281Z,247.50
2019-04-06T06:59:46.274Z,247.50
2019-04-06T07:00:46.268Z,247.50
2019-04-06T07:01:46.257Z,247.50
2019-04-06T07:02:46.318Z,247.50
2019-04-06T07:03:46.374Z,247.50
2019-04-06T07:04:46.221Z,247.50
2019-04-06T07:05:46.208Z,247.50
2019-04-06T07:06:46.207Z,247.50
2019-04-06T07:07:46.331Z,247.50
2019-04-06T07:08:46.229Z,247.50
2019-04-06T07:09:46.174Z,247.50
2019-04-06T07:10:46.162Z,247.50
2019-04-06T07:11:46.155Z,247.50
2019-04-06T07:12:46.134Z,247.50
2019-04-06T07:13:46.130Z,241.87
2019-04-06T07:14:46.333Z,247.50
2019-04-06T07:15:46.107Z,247.50
2019-04-06T07:16:46.131Z,247.50
2019-04-06T07:17:46.087Z,253.12
2019-04-06T07:18:46.161Z,253.12
2019-04-06T07:19:46.067Z,258.75
2019-04-06T07:20:46.155Z,258.75
2019-04-06T07:21:46.039Z,258.75
2019-04-06T07:22:46.035Z,258.75
2019-04-06T07:23:46.234Z,258.75
2019-04-06T07:24:46.009Z,253.12
2019-04-06T07:25:56.638Z,247.50
2019-04-06T07:27:11.075Z,241.87
2019-04-06T07:28:11.293Z,241.87
2019-04-06T07:29:10.889Z,241.87
2019-04-06T07:30:11.078Z,241.87
2019-04-06T07:31:10.873Z,241.87
2019-04-06T07:32:11.056Z,241.87
2019-04-06T07:33:11.103Z,241.87
2019-04-06T07:34:10.837Z,241.87
2019-04-06T07:35:10.838Z,241.87
2019-04-06T07:36:10.820Z,241.87
2019-04-06T07:37:11.127Z,241.87
2019-04-06T07:38:10.860Z,241.87
2019-04-06T07:39:10.785Z,241.87
2019-04-06T07:40:10.826Z,247.50
2019-04-06T07:41:10.764Z,247.50
2019-04-06T07:42:10.944Z,247.50
2019-04-06T07:43:10.741Z,247.50
2019-04-06T07:44:11.008Z,241.87
2019-04-06T07:45:10.730Z,247.50
2019-04-06T07:46:10.717Z,247.50
2019-04-06T07:47:10.704Z,247.50
2019-04-06T07:48:10.693Z,247.50
2019-04-06T07:49:10.713Z,247.50
2019-04-06T07:50:11.059Z,247.50
2019-04-06T07:51:10.676Z,247.50
2019-04-06T07:52:10.661Z,253.12
2019-04-06T07:53:10.829Z,253.12
2019-04-06T07:54:10.639Z,253.12
2019-04-06T07:55:10.612Z,258.75
2019-04-06T07:56:10.768Z,258.75
2019-04-06T07:57:10.598Z,258.75
2019-04-06T07:58:10.628Z,258.75
2019-04-06T07:59:10.582Z,253.12
2019-04-06T08:00:10.568Z,253.12
2019-04-06T08:01:10.558Z,253.12
2019-04-06T08:02:10.834Z,253.12
2019-04-06T08:03:10.555Z,253.12
2019-04-06T08:04:10.525Z,258.75
2019-04-06T08:05:10.521Z,253.12
2019-04-06T08:06:10.507Z,253.12
2019-04-06T08:07:10.503Z,258.75
2019-04-06T08:08:10.740Z,258.75
2019-04-06T08:09:10.477Z,264.37
2019-04-06T08:10:10.698Z,270.00
2019-04-06T08:11:10.458Z,270.00
2019-04-06T08:12:10.446Z,270.00
2019-04-06T08:13:10.459Z,270.00
2019-04-06T08:14:10.540Z,270.00
2019-04-06T08:15:10.416Z,270.00
2019-04-06T08:16:10.404Z,264.37
2019-04-06T08:17:10.393Z,264.37
2019-04-06T08:18:10.382Z,270.00
2019-04-06T08:19:10.421Z,264.37
2019-04-06T08:20:10.376Z,270.00
2019-04-06T08:21:10.426Z,270.00
2019-04-06T08:22:10.345Z,270.00
2019-04-06T08:23:10.330Z,270.00
2019-04-06T08:24:10.325Z,270.00
2019-04-06T08:25:10.364Z,270.00
2019-04-06T08:26:10.760Z,270.00
2019-04-06T08:27:10.292Z,275.62
2019-04-06T08:28:10.467Z,281.25
2019-04-06T08:29:10.273Z,286.87
2019-04-06T08:30:10.262Z,292.50
2019-04-06T08:31:10.689Z,292.50
2019-04-06T08:32:10.244Z,292.50
2019-04-06T08:33:10.229Z,292.50
2019-04-06T08:34:10.221Z,286.87
2019-04-06T08:35:10.206Z,281.25
2019-04-06T08:36:10.197Z,275.62
2019-04-06T08:37:10.309Z,270.00
2019-04-06T08:38:10.175Z,275.62
2019-04-06T08:39:10.395Z,275.62
2019-04-06T08:40:10.158Z,275.62
2019-04-06T08:41:10.144Z,275.62
2019-04-06T08:42:10.134Z,275.62
2019-04-06T08:43:10.181Z,275.62
2019-04-06T08:44:10.118Z,275.62
2019-04-06T08:45:10.106Z,275.62
2019-04-06T08:46:10.097Z,270.00
2019-04-06T08:47:10.090Z,270.00
2019-04-06T08:48:10.073Z,270.00
2019-04-06T08:49:11.018Z,275.62
2019-04-06T08:50:10.051Z,270.00
2019-04-06T08:51:10.115Z,264.37
2019-04-06T08:52:11.595Z,258.75
2019-04-06T08:53:10.027Z,253.12
2019-04-06T08:54:10.012Z,253.12
2019-04-06T08:55:10.053Z,253.12
2019-04-06T08:56:09.993Z,247.50
2019-04-06T08:57:09.979Z,247.50
2019-04-06T08:58:09.969Z,253.12
2019-04-06T08:59:12.106Z,253.12
2019-04-06T09:00:10.009Z,258.75
2019-04-06T09:01:10.043Z,264.37
2019-04-06T09:02:09.927Z,264.37
2019-04-06T09:03:09.923Z,253.12
2019-04-06T09:04:09.930Z,241.87
2019-04-06T09:05:09.898Z,230.62
2019-04-06T09:06:09.897Z,230.62
2019-04-06T09:07:10.129Z,236.25
2019-04-06T09:08:09.870Z,236.25
2019-04-06T09:09:09.861Z,241.87
2019-04-06T09:10:09.850Z,241.87
2019-04-06T09:11:09.844Z,241.87
2019-04-06T09:12:09.828Z,241.87
2019-04-06T09:13:09.867Z,247.50
2019-04-06T09:14:09.807Z,247.50
2019-04-06T09:15:10.054Z,247.50
2019-04-06T09:16:09.785Z,247.50
2019-04-06T09:17:09.774Z,241.87
2019-04-06T09:18:09.768Z,236.25
2019-04-06T09:19:09.803Z,236.25
2019-04-06T09:20:09.897Z,236.25
2019-04-06T09:21:09.734Z,236.25
2019-04-06T09:22:09.726Z,241.87
2019-04-06T09:23:09.737Z,241.87
2019-04-06T09:24:09.706Z,241.87
2019-04-06T09:25:10.247Z,241.87
2019-04-06T09:26:09.686Z,241.87
2019-04-06T09:27:09.905Z,241.87
2019-04-06T09:28:09.661Z,241.87
2019-04-06T09:29:09.752Z,247.50
2019-04-06T09:30:09.642Z,241.87
2019-04-06T09:31:09.716Z,236.25
2019-04-06T09:34:34.203Z,241.87
2019-04-06T09:34:38.726Z,241.87
2019-04-06T09:35:38.922Z,241.87
2019-04-06T09:36:38.752Z,241.87
2019-04-06T09:37:38.991Z,236.25
2019-04-06T09:38:38.716Z,236.25
2019-04-06T09:39:38.670Z,230.62
2019-04-06T09:40:38.659Z,230.62
2019-04-06T09:41:38.653Z,230.62
2019-04-06T09:42:38.785Z,230.62
2019-04-06T09:43:38.705Z,236.25
2019-04-06T09:44:38.610Z,236.25
2019-04-06T09:45:41.284Z,241.87
2019-04-06T09:46:38.588Z,241.87
2019-04-06T09:47:38.579Z,241.87
2019-04-06T09:48:38.616Z,236.25
2019-04-06T09:49:38.559Z,236.25
2019-04-06T09:50:38.549Z,230.62
2019-04-06T09:51:38.532Z,230.62
2019-04-06T09:52:38.525Z,225.00
2019-04-06T09:53:38.514Z,219.37
2019-04-06T09:54:38.772Z,219.37
2019-04-06T09:55:38.491Z,219.37
2019-04-06T09:56:38.486Z,219.37
2019-04-06T09:57:38.473Z,219.37
2019-04-06T09:58:38.469Z,213.75
2019-04-06T09:59:38.712Z,213.75
2019-04-06T10:00:38.843Z,213.75
2019-04-06T10:01:39.267Z,219.37
2019-04-06T10:02:38.421Z,219.37
2019-04-06T10:03:38.665Z,219.37
2019-04-06T10:04:38.693Z,219.37
2019-04-06T10:05:38.629Z,219.37
2019-04-06T10:06:38.629Z,213.75
2019-04-06T10:07:38.365Z,213.75
2019-04-06T10:08:38.494Z,208.12
2019-04-06T10:09:38.371Z,208.12
2019-04-06T10:10:38.345Z,208.12
2019-04-06T10:11:38.328Z,202.50
2019-04-06T10:12:38.365Z,202.50
2019-04-06T10:13:38.306Z,202.50
2019-04-06T10:14:38.300Z,202.50
2019-04-06T10:15:38.291Z,202.50
2019-04-06T10:16:38.275Z,202.50
2019-04-06T10:17:38.264Z,202.50
2019-04-06T10:18:38.404Z,196.87
2019-04-06T10:19:38.245Z,196.87
2019-04-06T10:20:38.329Z,196.87
2019-04-06T10:21:38.225Z,196.87
2019-04-06T10:22:38.548Z,191.25
2019-04-06T10:23:38.202Z,191.25
2019-04-06T10:24:38.369Z,191.25
2019-04-06T10:25:38.481Z,191.25
2019-04-06T10:26:38.165Z,196.87
2019-04-06T10:27:38.164Z,196.87
2019-04-06T10:28:38.165Z,196.87
2019-04-06T10:29:48.254Z,196.87
2019-04-06T10:30:39.357Z,196.87
2019-04-06T10:31:38.134Z,191.25
2019-04-06T10:32:38.123Z,191.25
2019-04-06T10:33:38.109Z,191.25
2019-04-06T10:34:38.156Z,191.25
2019-04-06T10:35:38.088Z,185.62
2019-04-06T10:36:38.285Z,185.62
2019-04-06T10:37:38.151Z,191.25
2019-04-06T10:38:38.564Z,191.25
2019-04-06T10:39:38.047Z,191.25
2019-04-06T10:40:38.311Z,191.25
2019-04-06T10:41:38.027Z,191.25
2019-04-06T10:42:38.121Z,191.25
2019-04-06T10:43:38.082Z,185.62
2019-04-06T10:44:37.999Z,180.00
2019-04-06T10:45:37.992Z,180.00
2019-04-06T10:46:37.971Z,180.00
2019-04-06T10:47:37.963Z,180.00
2019-04-06T10:48:38.051Z,174.37
2019-04-06T10:49:37.942Z,174.37
2019-04-06T10:50:37.930Z,174.37
2019-04-06T10:51:40.557Z,174.37
2019-04-06T10:52:37.910Z,174.37
2019-04-06T10:53:37.902Z,174.37
2019-04-06T10:54:38.194Z,174.37
2019-04-06T10:55:38.186Z,174.37
2019-04-06T10:56:37.872Z,174.37
2019-04-06T10:57:37.859Z,174.37
2019-04-06T10:58:37.987Z,174.37
2019-04-06T10:59:37.838Z,174.37
2019-04-06T11:00:37.926Z,174.37
2019-04-06T11:01:37.815Z,174.37
2019-04-06T11:02:37.833Z,168.75
2019-04-06T11:03:37.791Z,168.75
2019-04-06T11:04:37.782Z,168.75
2019-04-06T11:05:37.773Z,168.75
2019-04-06T11:06:37.865Z,168.75
2019-04-06T11:07:38.238Z,168.75
2019-04-06T11:08:37.738Z,168.75
2019-04-06T11:09:37.722Z,168.75
2019-04-06T11:10:37.711Z,168.75
2019-04-06T11:11:37.853Z,168.75
2019-04-06T11:12:37.917Z,168.75
2019-04-06T11:13:37.689Z,168.75
2019-04-06T11:14:37.673Z,163.12
2019-04-06T11:15:37.661Z,163.12
2019-04-06T11:16:37.648Z,163.12
2019-04-06T11:17:37.739Z,163.12
2019-04-06T11:18:37.630Z,163.12
2019-04-06T11:19:37.612Z,163.12
2019-04-06T11:20:37.606Z,157.50
2019-04-06T11:21:37.593Z,157.50
2019-04-06T11:22:37.584Z,151.87
2019-04-06T11:23:37.674Z,151.87
2019-04-06T11:24:37.566Z,151.87
2019-04-06T11:25:37.553Z,151.87
2019-04-06T11:26:37.543Z,157.50
2019-04-06T11:27:37.671Z,163.12
2019-04-06T11:28:37.520Z,163.12
2019-04-06T11:29:37.604Z,163.12
2019-04-06T11:30:37.496Z,163.12
2019-04-06T11:31:37.492Z,163.12
2019-04-06T11:32:37.650Z,157.50
2019-04-06T11:33:37.622Z,157.50
2019-04-06T11:34:37.602Z,157.50
2019-04-06T11:35:37.442Z,157.50
2019-04-06T11:36:37.431Z,157.50
2019-04-06T11:37:37.416Z,157.50
2019-04-06T11:38:37.407Z,151.87
2019-04-06T11:39:37.394Z,151.87
2019-04-06T11:40:37.535Z,151.87
2019-04-06T11:41:37.376Z,151.87
2019-04-06T11:42:37.362Z,151.87
2019-04-06T11:43:37.353Z,151.87
2019-04-06T11:44:37.338Z,151.87
2019-04-06T11:45:37.328Z,151.87
2019-04-06T11:46:37.421Z,151.87
2019-04-06T11:47:37.307Z,151.87
2019-04-06T11:48:37.461Z,151.87
2019-04-06T11:49:37.287Z,151.87
2019-04-06T11:50:37.275Z,146.25
2019-04-06T11:51:37.591Z,146.25
2019-04-06T11:52:37.454Z,146.25
2019-04-06T11:53:37.395Z,146.25
2019-04-06T11:54:37.523Z,146.25
2019-04-06T11:55:37.257Z,146.25
2019-04-06T11:56:37.211Z,146.25
2019-04-06T11:57:37.198Z,146.25
2019-04-06T11:58:37.289Z,146.25
2019-04-06T11:59:37.175Z,146.25
2019-04-06T12:00:37.167Z,146.25
2019-04-06T12:01:37.155Z,140.62
2019-04-06T12:02:37.143Z,140.62
2019-04-06T12:03:37.132Z,140.62
2019-04-06T12:04:37.194Z,140.62
2019-04-06T12:05:37.109Z,140.62
2019-04-06T12:06:37.197Z,140.62
2019-04-06T12:07:37.347Z,140.62
2019-04-06T12:08:37.078Z,140.62
2019-04-06T12:09:37.078Z,140.62
2019-04-06T12:10:37.250Z,135.00
2019-04-06T12:11:37.044Z,135.00
2019-04-06T12:12:37.329Z,135.00
2019-04-06T12:13:37.023Z,135.00
2019-04-06T12:14:37.010Z,135.00
2019-04-06T12:15:37.001Z,135.00
2019-04-06T12:16:37.040Z,135.00
2019-04-06T12:17:36.979Z,129.37
2019-04-06T12:18:37.236Z,129.37
2019-04-06T12:19:36.957Z,129.37
2019-04-06T12:20:36.946Z,129.37
2019-04-06T12:21:36.983Z,129.37
2019-04-06T12:22:36.972Z,129.37
2019-04-06T12:23:37.299Z,123.75
2019-04-06T12:24:36.901Z,123.75
2019-04-06T12:25:37.054Z,123.75
2019-04-06T12:26:36.876Z,123.75
2019-04-06T12:27:36.865Z,123.75
2019-04-06T12:28:37.063Z,123.75
2019-04-06T12:29:36.847Z,118.12
2019-04-06T12:30:39.072Z,118.12
2019-04-06T12:31:36.822Z,118.12
2019-04-06T12:32:36.812Z,118.12
2019-04-06T12:33:36.799Z,118.12
2019-04-06T12:34:37.132Z,118.12
2019-04-06T12:35:36.782Z,118.12
2019-04-06T12:36:36.769Z,112.50
2019-04-06T12:37:36.754Z,112.50
2019-04-06T12:38:37.101Z,112.50
2019-04-06T12:39:36.735Z,112.50
2019-04-06T12:40:36.835Z,112.50
2019-04-06T12:41:36.715Z,106.87
2019-04-06T12:42:36.704Z,106.87
2019-04-06T12:43:36.692Z,106.87
2019-04-06T12:44:36.836Z,106.87
2019-04-06T12:45:36.959Z,106.87
2019-04-06T12:46:37.647Z,106.87
2019-04-06T12:47:36.766Z,101.25
2019-04-06T12:48:36.782Z,101.25
2019-04-06T12:49:36.624Z,101.25
2019-04-06T12:50:36.613Z,101.25
2019-04-06T12:51:36.604Z,95.62
2019-04-06T12:52:37.027Z,95.62
2019-04-06T12:53:36.583Z,95.62
2019-04-06T12:54:36.577Z,95.62
2019-04-06T12:55:36.565Z,95.62
2019-04-06T12:56:36.776Z,90.00